Clayhole, Kentucky
Current Conditions -  °F | °C
As of 1:53 PM on Saturday 20 Dec 2014 (Local Time) from KJKL Reporting Station
Overcast Overcast  
Wind Chill: 38°   Ceiling: 5500
Heat Index: 38°   Visibility: 10mi
Dew Point: 25°   Wind: 3mph
Humidity: 60%   Direction: 320°NW
Pressure: 30.19"   Gusts: NA
Location:  37.46°N, 83.19°W
Report Text: KJKL 201853Z AUTO 32003KT 10SM OVC055 03/M04 A3019 RMK AO2 SLP234 T00331039
Loading
Personal Weather Stations






























Interactive Weather Map New forecast layout! Learn more

10-Day Weather Forecast

Advertisements
Track Severe Weather on mobile